createdAt,value
2018-10-21T00:00:22.113Z,31.20
2018-10-21T00:02:51.304Z,31.73
2018-10-21T00:05:21.099Z,31.40
2018-10-21T00:07:50.983Z,30.50
2018-10-21T00:10:20.745Z,28.93
2018-10-21T00:12:50.533Z,30.60
2018-10-21T00:15:20.703Z,30.00
2018-10-21T00:17:49.471Z,28.83
2018-10-21T00:20:18.271Z,29.77
2018-10-21T00:22:47.103Z,28.73
2018-10-21T00:25:15.874Z,30.87
2018-10-21T00:27:44.724Z,31.30
2018-10-21T00:30:13.735Z,30.40
2018-10-21T00:32:47.880Z,30.80
2018-10-21T00:35:17.483Z,29.30
2018-10-21T00:37:46.399Z,32.17
2018-10-21T00:40:15.532Z,32.10
2018-10-21T00:42:44.358Z,30.67
2018-10-21T00:45:13.949Z,31.20
2018-10-21T00:47:42.684Z,29.13
2018-10-21T00:50:12.247Z,29.77
2018-10-21T00:52:41.040Z,30.30
2018-10-21T00:55:10.664Z,32.90
2018-10-21T00:57:39.821Z,29.10
2018-10-21T01:00:10.752Z,30.33
2018-10-21T01:02:39.962Z,30.47
2018-10-21T01:05:10.016Z,30.70
2018-10-21T01:07:38.951Z,30.57
2018-10-21T01:10:10.085Z,31.30
2018-10-21T01:12:38.916Z,32.70
2018-10-21T01:15:09.564Z,30.93
2018-10-21T01:17:38.363Z,30.43
2018-10-21T01:20:08.790Z,31.23
2018-10-21T01:22:37.916Z,31.10
2018-10-21T01:25:07.357Z,30.23
2018-10-21T01:27:36.311Z,31.37
2018-10-21T01:30:05.945Z,29.50
2018-10-21T01:32:34.727Z,31.70
2018-10-21T01:35:03.699Z,27.93
2018-10-21T01:37:32.547Z,30.27
2018-10-21T01:40:41.807Z,31.40
2018-10-21T01:43:12.035Z,29.77
2018-10-21T01:45:41.088Z,31.53
2018-10-21T01:48:11.837Z,31.40
2018-10-21T01:50:41.001Z,29.77
2018-10-21T01:53:11.459Z,31.67
2018-10-21T01:55:40.449Z,31.80
2018-10-21T01:58:09.228Z,32.20
2018-10-21T02:00:38.732Z,30.87
2018-10-21T02:03:07.835Z,33.87
2018-10-21T02:05:37.262Z,30.50
2018-10-21T02:08:06.465Z,33.70
2018-10-21T02:10:35.632Z,31.93
2018-10-21T02:13:04.616Z,31.33
2018-10-21T02:15:33.546Z,31.20
2018-10-21T02:18:03.227Z,32.87
2018-10-21T02:20:32.139Z,33.83
2018-10-21T02:23:00.957Z,32.00
2018-10-21T02:25:29.794Z,32.03
2018-10-21T02:27:58.704Z,32.53
2018-10-21T02:30:29.707Z,32.50
2018-10-21T02:32:59.132Z,31.40
2018-10-21T02:35:28.225Z,33.67
2018-10-21T02:37:57.898Z,34.07
2018-10-21T02:41:51.268Z,34.10
2018-10-21T02:44:21.858Z,33.20
2018-10-21T02:46:52.776Z,32.63
2018-10-21T02:49:22.133Z,33.07
2018-10-21T02:51:56.609Z,34.30
2018-10-21T02:54:28.862Z,32.93
2018-10-21T02:56:57.774Z,34.97
2018-10-21T02:59:26.799Z,32.57
2018-10-21T03:01:55.725Z,34.03
2018-10-21T03:04:25.147Z,33.47
2018-10-21T03:06:53.918Z,32.30
2018-10-21T03:09:23.033Z,33.90
2018-10-21T03:11:51.875Z,32.37
2018-10-21T03:14:20.694Z,32.17
2018-10-21T03:16:49.831Z,31.10
2018-10-21T03:19:19.018Z,32.53
2018-10-21T03:21:47.898Z,32.87
2018-10-21T03:24:17.209Z,33.07
2018-10-21T03:26:47.484Z,32.10
2018-10-21T03:29:16.287Z,32.20
2018-10-21T03:31:45.399Z,35.23
2018-10-21T03:34:14.201Z,34.50
2018-10-21T03:36:43.162Z,32.47
2018-10-21T03:39:12.299Z,35.00
2018-10-21T03:41:41.449Z,32.27
2018-10-21T03:44:10.493Z,36.90
2018-10-21T03:46:39.351Z,33.63
2018-10-21T03:49:08.166Z,34.57
2018-10-21T03:51:36.978Z,33.47
2018-10-21T03:54:05.912Z,34.20
2018-10-21T03:56:35.056Z,34.07
2018-10-21T03:59:04.306Z,34.50
2018-10-21T04:01:33.407Z,35.20
2018-10-21T04:04:02.871Z,34.43
2018-10-21T04:06:31.967Z,33.07
2018-10-21T04:09:00.814Z,33.33
2018-10-21T04:11:29.946Z,35.00
2018-10-21T04:13:58.746Z,34.00
2018-10-21T04:16:27.640Z,35.57
2018-10-21T04:18:56.696Z,35.57
2018-10-21T04:21:25.832Z,32.60
2018-10-21T04:23:55.195Z,34.30
2018-10-21T04:26:24.040Z,35.23
2018-10-21T04:28:52.797Z,33.73
2018-10-21T04:31:21.918Z,33.93
2018-10-21T04:33:51.373Z,31.63
2018-10-21T04:36:27.318Z,34.93
2018-10-21T04:40:14.392Z,33.10
2018-10-21T04:42:43.357Z,34.17
2018-10-21T04:45:13.390Z,34.10
2018-10-21T04:47:42.889Z,35.87
2018-10-21T04:50:12.233Z,36.33
2018-10-21T04:52:41.061Z,37.73
2018-10-21T04:55:12.207Z,33.50
2018-10-21T04:57:42.275Z,37.50
2018-10-21T05:00:16.235Z,35.87
2018-10-21T05:02:44.993Z,37.10
2018-10-21T05:05:15.023Z,34.17
2018-10-21T05:07:43.867Z,36.83
2018-10-21T05:10:22.678Z,35.50
2018-10-21T05:12:52.251Z,34.23
2018-10-21T05:15:21.741Z,33.07
2018-10-21T05:17:50.863Z,33.47
2018-10-21T05:20:19.941Z,35.23
2018-10-21T05:22:49.176Z,31.93
2018-10-21T05:25:17.969Z,31.83
2018-10-21T05:27:47.166Z,33.10
2018-10-21T05:30:16.069Z,32.10
2018-10-21T05:32:45.014Z,32.93
2018-10-21T05:35:15.088Z,32.03
2018-10-21T05:37:44.218Z,34.27
2018-10-21T05:40:15.988Z,32.73
2018-10-21T05:42:45.198Z,31.70
2018-10-21T05:45:13.963Z,30.40
2018-10-21T05:47:43.097Z,32.30
2018-10-21T05:50:13.392Z,32.43
2018-10-21T05:52:42.461Z,32.27
2018-10-21T05:55:12.124Z,34.80
2018-10-21T05:57:41.057Z,35.00
2018-10-21T06:00:14.569Z,35.40
2018-10-21T06:02:43.480Z,33.80
2018-10-21T06:05:23.658Z,35.00
2018-10-21T06:07:52.813Z,34.57
2018-10-21T06:10:21.580Z,33.20
2018-10-21T06:12:50.408Z,32.77
2018-10-21T06:15:19.254Z,33.60
2018-10-21T06:17:48.380Z,33.67
2018-10-21T06:20:35.288Z,32.80
2018-10-21T06:23:04.183Z,30.57
2018-10-21T06:25:33.338Z,31.37
2018-10-21T06:28:02.232Z,32.07
2018-10-21T06:30:31.140Z,31.03
2018-10-21T06:33:00.372Z,30.57
2018-10-21T06:35:29.206Z,30.77
2018-10-21T06:37:58.332Z,31.60
2018-10-21T06:40:27.378Z,33.27
2018-10-21T06:42:56.670Z,34.73
2018-10-21T06:45:25.649Z,33.40
2018-10-21T06:47:54.726Z,34.90
2018-10-21T06:50:23.631Z,31.90
2018-10-21T06:52:52.630Z,34.53
2018-10-21T06:55:21.395Z,33.80
2018-10-21T06:57:50.381Z,36.80
2018-10-21T07:00:19.148Z,36.20
2018-10-21T07:02:47.963Z,37.80
2018-10-21T07:05:27.971Z,41.07
2018-10-21T07:07:56.848Z,38.87
2018-10-21T07:10:26.198Z,39.83
2018-10-21T07:12:55.077Z,41.60
2018-10-21T07:15:24.160Z,46.00
2018-10-21T07:17:52.961Z,42.57
2018-10-21T07:20:23.235Z,43.87
2018-10-21T07:22:52.335Z,45.87
2018-10-21T07:25:21.149Z,44.57
2018-10-21T07:27:50.234Z,42.53
2018-10-21T07:30:19.256Z,44.90
2018-10-21T07:32:48.151Z,43.80
2018-10-21T07:35:16.951Z,43.97
2018-10-21T07:37:45.771Z,41.70
2018-10-21T07:40:14.801Z,45.53
2018-10-21T07:42:43.912Z,43.97
2018-10-21T07:45:13.224Z,42.10
2018-10-21T07:47:42.518Z,41.07
2018-10-21T07:50:11.414Z,42.30
2018-10-21T07:52:40.490Z,39.23
2018-10-21T07:55:13.722Z,40.53
2018-10-21T07:57:42.591Z,38.83
2018-10-21T08:00:11.731Z,37.90
2018-10-21T08:02:40.791Z,39.90
2018-10-21T08:05:19.910Z,37.27
2018-10-21T08:07:59.852Z,38.83
2018-10-21T08:10:28.695Z,35.87
2018-10-21T08:12:57.514Z,34.87
2018-10-21T08:15:27.340Z,37.77
2018-10-21T08:17:56.209Z,37.53
2018-10-21T08:20:25.463Z,38.13
2018-10-21T08:22:54.400Z,36.60
2018-10-21T08:25:23.314Z,35.57
2018-10-21T08:27:52.328Z,35.43
2018-10-21T08:30:21.181Z,33.87
2018-10-21T08:32:50.191Z,35.80
2018-10-21T08:35:19.997Z,34.20
2018-10-21T08:37:49.092Z,32.50
2018-10-21T08:40:17.915Z,34.57
2018-10-21T08:42:46.699Z,33.30
2018-10-21T08:45:15.482Z,34.33
2018-10-21T08:47:44.341Z,33.17
2018-10-21T08:50:14.018Z,34.17
2018-10-21T08:52:43.078Z,33.10
2018-10-21T08:55:12.653Z,32.90
2018-10-21T08:57:41.801Z,33.60
2018-10-21T09:00:13.774Z,32.93
2018-10-21T09:02:43.150Z,31.83
2018-10-21T09:05:13.104Z,32.20
2018-10-21T09:07:43.257Z,29.70
2018-10-21T09:10:13.250Z,34.03
2018-10-21T09:12:42.988Z,31.10
2018-10-21T09:15:14.769Z,29.63
2018-10-21T09:17:44.237Z,30.73
2018-10-21T09:20:16.134Z,31.30
2018-10-21T09:22:44.924Z,31.10
2018-10-21T09:25:14.203Z,30.97
2018-10-21T09:27:44.020Z,29.97
2018-10-21T09:30:15.509Z,29.50
2018-10-21T09:32:44.364Z,29.07
2018-10-21T09:35:17.671Z,30.73
2018-10-21T09:37:47.012Z,30.27
2018-10-21T09:40:17.249Z,28.67
2018-10-21T09:42:46.949Z,27.27
2018-10-21T09:45:17.444Z,28.30
2018-10-21T09:47:46.861Z,29.17
2018-10-21T09:50:15.783Z,26.33
2018-10-21T09:52:44.665Z,26.83
2018-10-21T09:55:20.584Z,27.37
2018-10-21T09:57:50.211Z,28.47
2018-10-21T10:00:24.395Z,27.60
2018-10-21T10:02:58.384Z,25.73
2018-10-21T10:05:27.322Z,26.13
2018-10-21T10:07:56.547Z,27.07
2018-10-21T10:10:25.982Z,27.87
2018-10-21T10:12:55.064Z,28.60
2018-10-21T10:15:24.201Z,26.73
2018-10-21T10:17:53.366Z,25.20
2018-10-21T10:20:22.154Z,28.73
2018-10-21T10:22:51.353Z,28.60
2018-10-21T10:25:20.555Z,25.97
2018-10-21T10:27:49.642Z,29.10
2018-10-21T10:30:18.495Z,28.97
2018-10-21T10:32:47.413Z,28.40
2018-10-21T10:35:16.295Z,26.10
2018-10-21T10:37:45.171Z,27.13
2018-10-21T10:40:14.802Z,28.80
2018-10-21T10:42:45.044Z,26.83
2018-10-21T10:45:15.277Z,26.07
2018-10-21T10:47:44.414Z,27.20
2018-10-21T10:50:13.250Z,25.03
2018-10-21T10:52:42.212Z,25.80
2018-10-21T10:55:11.179Z,24.20
2018-10-21T10:57:46.231Z,24.50
2018-10-21T11:00:15.275Z,23.87
2018-10-21T11:02:44.371Z,24.40
2018-10-21T11:05:13.345Z,23.33
2018-10-21T11:07:42.461Z,21.73
2018-10-21T11:10:11.998Z,23.03
2018-10-21T11:12:40.877Z,24.80
2018-10-21T11:15:10.027Z,22.33
2018-10-21T11:17:38.971Z,23.40
2018-10-21T11:20:07.843Z,22.50
2018-10-21T11:22:36.900Z,20.60
2018-10-21T11:25:07.945Z,21.33
2018-10-21T11:27:37.108Z,20.70
2018-10-21T11:30:06.638Z,21.40
2018-10-21T11:32:35.443Z,21.70
2018-10-21T11:35:04.784Z,21.87
2018-10-21T11:37:34.037Z,23.50
2018-10-21T11:40:02.922Z,20.50
2018-10-21T11:42:32.098Z,21.47
2018-10-21T11:45:00.872Z,21.10
2018-10-21T11:47:29.620Z,20.07
2018-10-21T11:49:58.763Z,21.43
2018-10-21T11:52:27.635Z,23.00
2018-10-21T11:54:56.466Z,20.30
2018-10-21T11:57:25.292Z,20.27
2018-10-21T11:59:54.083Z,19.07
2018-10-21T12:02:22.826Z,17.47
2018-10-21T12:04:51.972Z,17.23
2018-10-21T12:07:21.286Z,19.50
2018-10-21T12:09:50.090Z,18.03
2018-10-21T12:12:19.005Z,17.77
2018-10-21T12:14:48.198Z,17.20
2018-10-21T12:17:17.321Z,17.57
2018-10-21T12:19:46.153Z,16.87
2018-10-21T12:22:15.115Z,17.77
2018-10-21T12:24:43.762Z,17.37
2018-10-21T12:27:12.554Z,17.00
2018-10-21T12:29:42.032Z,19.43
2018-10-21T12:32:11.274Z,18.57
2018-10-21T12:34:40.281Z,16.70
2018-10-21T12:37:09.389Z,16.90
2018-10-21T12:39:38.247Z,16.13
2018-10-21T12:42:07.196Z,17.70
2018-10-21T12:44:36.330Z,19.03
2018-10-21T12:47:05.783Z,17.73
2018-10-21T12:49:34.558Z,16.10
2018-10-21T12:52:03.405Z,17.20
2018-10-21T12:54:32.575Z,18.40
2018-10-21T12:57:04.382Z,18.00
2018-10-21T12:59:33.542Z,19.03
2018-10-21T13:02:02.664Z,17.40
2018-10-21T13:04:31.479Z,17.53
2018-10-21T13:07:01.224Z,17.80
2018-10-21T13:09:29.971Z,17.87
2018-10-21T13:11:59.081Z,16.57
2018-10-21T13:14:28.148Z,16.77
2018-10-21T13:16:57.260Z,16.27
2018-10-21T13:19:26.107Z,17.40
2018-10-21T13:21:55.240Z,18.60
2018-10-21T13:24:24.386Z,16.90
2018-10-21T13:26:53.135Z,18.20
2018-10-21T13:29:21.923Z,18.90
2018-10-21T13:31:51.029Z,19.50
2018-10-21T13:34:19.910Z,18.43
2018-10-21T13:36:49.191Z,18.90
2018-10-21T13:39:18.410Z,17.67
2018-10-21T13:41:47.478Z,19.83
2018-10-21T13:44:16.556Z,17.67
2018-10-21T13:46:45.678Z,18.03
2018-10-21T13:49:14.905Z,18.20
2018-10-21T13:51:44.105Z,18.40
2018-10-21T13:54:13.133Z,19.57
2018-10-21T13:56:41.905Z,20.20
2018-10-21T13:59:10.815Z,20.20
2018-10-21T14:01:39.511Z,20.27
2018-10-21T14:04:08.640Z,17.77
2018-10-21T14:06:37.737Z,20.53
2018-10-21T14:09:09.640Z,19.73
2018-10-21T14:11:38.951Z,17.97
2018-10-21T14:14:09.687Z,16.60
2018-10-21T14:16:38.495Z,18.07
2018-10-21T14:19:07.667Z,18.77
2018-10-21T14:21:36.414Z,18.00
2018-10-21T14:24:05.268Z,16.80
2018-10-21T14:26:34.250Z,18.70
2018-10-21T14:29:03.047Z,17.50
2018-10-21T14:31:32.135Z,17.43
2018-10-21T14:34:01.167Z,18.37
2018-10-21T14:36:30.263Z,17.27
2018-10-21T14:38:59.676Z,18.40
2018-10-21T14:41:28.840Z,18.87
2018-10-21T14:43:57.975Z,19.27
2018-10-21T14:46:26.871Z,18.20
2018-10-21T14:48:56.394Z,19.23
2018-10-21T14:51:25.254Z,19.60
2018-10-21T14:53:56.113Z,20.10
2018-10-21T14:56:24.897Z,17.87
2018-10-21T14:58:53.978Z,17.20
2018-10-21T15:01:22.796Z,16.80
2018-10-21T15:03:52.324Z,15.87
2018-10-21T15:06:21.518Z,15.87
2018-10-21T15:08:50.350Z,14.17
2018-10-21T15:11:19.125Z,15.50
2018-10-21T15:13:47.977Z,16.57
2018-10-21T15:16:17.418Z,16.90
2018-10-21T15:18:46.211Z,17.40
2018-10-21T15:21:15.057Z,18.23
2018-10-21T15:23:43.934Z,16.90
2018-10-21T15:26:13.232Z,18.10
2018-10-21T15:28:42.331Z,18.37
2018-10-21T15:31:11.706Z,19.07
2018-10-21T15:33:40.774Z,18.10
2018-10-21T15:36:09.533Z,19.20
2018-10-21T15:38:38.365Z,16.03
2018-10-21T15:41:07.175Z,16.93
2018-10-21T15:43:35.948Z,17.27
2018-10-21T15:46:05.138Z,15.93
2018-10-21T15:48:33.996Z,16.40
2018-10-21T15:51:03.303Z,16.23
2018-10-21T15:53:32.551Z,16.80
2018-10-21T15:56:01.484Z,16.50
2018-10-21T15:58:30.256Z,18.10
2018-10-21T16:00:59.099Z,17.07
2018-10-21T16:03:28.234Z,16.07
2018-10-21T16:05:57.595Z,16.50
2018-10-21T16:08:26.643Z,17.10
2018-10-21T16:10:55.679Z,17.27
2018-10-21T16:13:24.699Z,16.03
2018-10-21T16:15:53.575Z,16.90
2018-10-21T16:18:22.535Z,16.97
2018-10-21T16:20:51.839Z,18.97
2018-10-21T16:23:21.060Z,16.80
2018-10-21T16:25:50.506Z,17.93
2018-10-21T16:28:20.045Z,19.23
2018-10-21T16:30:48.844Z,16.00
2018-10-21T16:33:17.939Z,16.60
2018-10-21T16:35:46.734Z,15.30
2018-10-21T16:38:16.222Z,15.90
2018-10-21T16:40:45.386Z,16.20
2018-10-21T16:43:14.195Z,16.07
2018-10-21T16:45:43.273Z,16.13
2018-10-21T16:48:12.179Z,15.93
2018-10-21T16:50:41.296Z,18.77
2018-10-21T16:53:10.689Z,16.97
2018-10-21T16:55:46.006Z,14.67
2018-10-21T16:58:14.746Z,15.33
2018-10-21T17:00:43.781Z,14.53
2018-10-21T17:03:12.419Z,16.30
2018-10-21T17:05:41.735Z,16.20
2018-10-21T17:08:10.767Z,15.70
2018-10-21T17:10:40.403Z,15.70
2018-10-21T17:13:09.291Z,16.60
2018-10-21T17:15:39.387Z,15.20
2018-10-21T17:18:08.627Z,17.07
2018-10-21T17:20:37.678Z,16.90
2018-10-21T17:23:06.789Z,16.80
2018-10-21T17:25:35.892Z,17.00
2018-10-21T17:28:04.938Z,17.00
2018-10-21T17:30:33.784Z,17.90
2018-10-21T17:33:02.610Z,17.47
2018-10-21T17:35:31.558Z,16.33
2018-10-21T17:38:00.483Z,17.77
2018-10-21T17:40:29.265Z,17.57
2018-10-21T17:42:58.453Z,15.70
2018-10-21T17:45:28.344Z,15.93
2018-10-21T17:47:57.258Z,17.30
2018-10-21T17:50:25.996Z,16.80
2018-10-21T17:52:55.048Z,16.53
2018-10-21T17:55:24.687Z,16.27
2018-10-21T17:57:53.812Z,15.63
2018-10-21T18:00:23.306Z,17.83
2018-10-21T18:02:52.128Z,16.73
2018-10-21T18:05:20.917Z,16.80
2018-10-21T18:07:50.430Z,18.30
2018-10-21T18:10:19.258Z,17.50
2018-10-21T18:12:48.376Z,17.60
2018-10-21T18:15:17.286Z,17.50
2018-10-21T18:17:46.169Z,17.13
2018-10-21T18:20:15.005Z,17.63
2018-10-21T18:22:43.869Z,17.97
2018-10-21T18:25:12.909Z,19.70
2018-10-21T18:27:42.746Z,16.83
2018-10-21T18:30:12.708Z,18.00
2018-10-21T18:32:42.285Z,17.80
2018-10-21T18:35:13.630Z,19.17
2018-10-21T18:37:42.631Z,17.20
2018-10-21T18:40:12.188Z,16.57
2018-10-21T18:42:41.712Z,17.97
2018-10-21T18:45:12.564Z,17.20
2018-10-21T18:47:41.886Z,17.10
2018-10-21T18:50:12.858Z,18.40
2018-10-21T18:52:42.121Z,17.07
2018-10-21T18:55:11.898Z,16.60
2018-10-21T18:57:41.255Z,18.03
2018-10-21T19:00:13.741Z,18.90
2018-10-21T19:02:42.852Z,16.80
2018-10-21T19:05:12.597Z,18.60
2018-10-21T19:07:41.508Z,17.37
2018-10-21T19:10:12.730Z,18.60
2018-10-21T19:12:41.690Z,19.83
2018-10-21T19:15:12.347Z,19.40
2018-10-21T19:17:42.032Z,19.77
2018-10-21T19:20:13.603Z,22.10
2018-10-21T19:22:42.736Z,19.10
2018-10-21T19:25:12.780Z,20.00
2018-10-21T19:27:42.238Z,19.27
2018-10-21T19:30:12.164Z,19.20
2018-10-21T19:32:41.629Z,18.80
2018-10-21T19:35:11.658Z,17.23
2018-10-21T19:37:40.703Z,19.70
2018-10-21T19:40:11.834Z,18.03
2018-10-21T19:42:41.451Z,19.60
2018-10-21T19:45:11.406Z,18.60
2018-10-21T19:47:41.021Z,18.97
2018-10-21T19:50:12.055Z,19.87
2018-10-21T19:52:42.194Z,19.23
2018-10-21T19:55:11.773Z,20.93
2018-10-21T19:57:40.610Z,20.23
2018-10-21T20:00:11.531Z,19.93
2018-10-21T20:02:40.604Z,22.57
2018-10-21T20:05:09.716Z,20.30
2018-10-21T20:07:38.438Z,20.33
2018-10-21T20:10:09.007Z,20.10
2018-10-21T20:12:44.359Z,22.03
2018-10-21T20:15:13.816Z,19.83
2018-10-21T20:17:42.599Z,20.37
2018-10-21T20:20:12.334Z,21.87
2018-10-21T20:22:41.184Z,20.80
2018-10-21T20:25:12.322Z,21.03
2018-10-21T20:27:41.500Z,20.47
2018-10-21T20:30:11.889Z,22.30
2018-10-21T20:32:40.678Z,21.00
2018-10-21T20:35:10.460Z,20.60
2018-10-21T20:37:39.546Z,21.77
2018-10-21T20:40:09.594Z,20.10
2018-10-21T20:42:38.560Z,18.97
2018-10-21T20:45:08.876Z,20.77
2018-10-21T20:47:37.701Z,21.07
2018-10-21T20:50:06.654Z,21.00
2018-10-21T20:52:35.457Z,24.23
2018-10-21T20:55:04.478Z,26.97
2018-10-21T20:57:33.356Z,24.27
2018-10-21T21:00:02.154Z,21.87
2018-10-21T21:02:31.239Z,23.67
2018-10-21T21:05:00.220Z,21.67
2018-10-21T21:07:28.994Z,22.33
2018-10-21T21:09:57.828Z,20.30
2018-10-21T21:12:26.950Z,22.10
2018-10-21T21:14:56.008Z,21.30
2018-10-21T21:17:24.795Z,21.13
2018-10-21T21:19:55.057Z,21.73
2018-10-21T21:22:23.912Z,20.27
2018-10-21T21:24:53.042Z,20.53
2018-10-21T21:27:21.892Z,22.87
2018-10-21T21:29:50.994Z,22.00
2018-10-21T21:32:19.965Z,22.17
2018-10-21T21:34:48.761Z,23.63
2018-10-21T21:37:17.951Z,21.07
2018-10-21T21:39:46.818Z,23.10
2018-10-21T21:42:15.693Z,21.20
2018-10-21T21:44:44.842Z,21.70
2018-10-21T21:47:13.656Z,23.30
2018-10-21T21:49:42.775Z,22.90
2018-10-21T21:52:12.057Z,24.83
2018-10-21T21:54:40.830Z,26.43
2018-10-21T21:57:09.835Z,29.93
2018-10-21T21:59:39.123Z,29.07
2018-10-21T22:02:07.937Z,32.60
2018-10-21T22:04:36.935Z,35.73
2018-10-21T22:07:06.111Z,33.87
2018-10-21T22:09:34.983Z,28.10
2018-10-21T22:12:03.816Z,24.20
2018-10-21T22:14:32.803Z,23.70
2018-10-21T22:17:01.662Z,21.97
2018-10-21T22:19:30.505Z,21.60
2018-10-21T22:21:59.384Z,20.97
2018-10-21T22:24:28.221Z,23.80
2018-10-21T22:26:57.084Z,21.97
2018-10-21T22:29:26.236Z,22.00
2018-10-21T22:31:55.076Z,21.87
2018-10-21T22:34:23.970Z,24.17
2018-10-21T22:36:53.007Z,22.00
2018-10-21T22:39:22.149Z,22.63
2018-10-21T22:41:51.359Z,23.57
2018-10-21T22:44:21.107Z,24.30
2018-10-21T22:46:50.367Z,26.10
2018-10-21T22:49:19.204Z,26.17
2018-10-21T22:51:48.525Z,26.10
2018-10-21T22:54:17.407Z,25.80
2018-10-21T22:56:46.168Z,26.67
2018-10-21T22:59:14.930Z,28.43
2018-10-21T23:01:43.733Z,27.47
2018-10-21T23:04:12.866Z,29.57
2018-10-21T23:06:41.678Z,28.03
2018-10-21T23:09:11.723Z,28.27
2018-10-21T23:11:40.875Z,31.40
2018-10-21T23:14:11.020Z,30.90
2018-10-21T23:16:40.660Z,29.60
2018-10-21T23:19:20.473Z,30.63
2018-10-21T23:21:49.445Z,29.90
2018-10-21T23:24:19.433Z,31.33
2018-10-21T23:26:48.211Z,30.73
2018-10-21T23:29:17.235Z,30.43
2018-10-21T23:31:46.077Z,30.70
2018-10-21T23:34:15.631Z,32.83
2018-10-21T23:36:44.644Z,32.07
2018-10-21T23:39:13.516Z,29.57
2018-10-21T23:41:42.370Z,30.70
2018-10-21T23:44:11.229Z,32.33
2018-10-21T23:46:40.584Z,31.50
2018-10-21T23:49:09.806Z,31.77
2018-10-21T23:51:39.404Z,33.07
2018-10-21T23:54:08.516Z,34.20
2018-10-21T23:56:37.306Z,30.63
2018-10-21T23:59:07.575Z,33.93
